KC9GSD Weather Reports


Display with metric or nautical units.
time (UTC)temp
F
wind
direction
speed
MPH
gust
MPH
rain 1hr
in
rain 24hr
in
rain mn
in
humidity
%
barometer
mb
20260504130748 60 180 0.0 0.0 0.00 0.00 0.00 63 1017.6
20260504130244 59 121 0.0 0.0 0.00 0.00 0.00 63 1017.6
20260504120208 51 120 0.0 0.0 0.00 0.00 0.00 83 1017.1
20260504110635 48 126 0.0 0.0 0.00 0.00 0.00 84 1016.7
20260504110131 48 126 0.0 0.0 0.00 0.00 0.00 83 1016.6
20260504100557 47 127 0.0 0.0 0.00 0.00 0.00 84 1016.4
20260504081950 46 127 0.0 0.0 0.00 0.00 0.00 85 1016.1
20260504081448 46 127 0.0 0.0 0.00 0.00 0.00 86 1016.2
20260504080943 46 127 0.0 0.0 0.00 0.00 0.00 88 1016.4
20260504080440 46 127 0.0 0.0 0.00 0.00 0.00 89 1016.6
20260504070408 46 127 0.0 0.0 0.00 0.00 0.00 87 1016.5
20260504050253 48 128 0.0 0.0 0.00 0.00 0.00 80 1017.6
20260504045751 48 127 0.0 0.0 0.00 0.00 0.00 82 1017.5
20260504045250 48 127 0.0 0.0 0.00 0.00 0.00 82 1017.7
20260504044748 47 127 0.0 0.0 0.00 0.00 0.00 84 1017.4
20260504044246 47 127 0.0 0.0 0.00 0.00 0.00 83 1017.5
20260504043743 47 128 0.0 0.0 0.00 0.00 0.00 82 1017.6
20260504043239 47 128 0.0 0.0 0.00 0.00 0.00 85 1017.8
20260504042738 48 128 0.0 0.0 0.00 0.00 0.00 85 1017.6
20260504042234 47 128 0.0 0.0 0.00 0.00 0.00 84 1017.5
20260504041730 47 128 0.0 0.0 0.00 0.00 0.00 87 1017.6
20260504041226 47 128 0.0 0.0 0.00 0.00 0.00 85 1017.8
20260504040722 47 128 0.0 0.0 0.00 0.00 0.00 85 1018.0
20260504040220 48 128 0.0 0.0 0.00 0.00 0.00 86 1017.9
20260504035716 48 128 0.0 0.0 0.00 0.00 0.00 85 1018.1
20260504035213 48 128 0.0 0.0 0.00 0.00 0.00 84 1018.0
20260504034711 48 128 0.0 0.0 0.00 0.00 0.00 84 1018.3
20260504034208 47 128 0.0 0.0 0.00 0.00 0.00 84 1018.3
20260504033705 47 128 0.0 0.0 0.00 0.00 0.00 85 1018.1
20260504033202 48 128 0.0 0.0 0.00 0.00 0.00 84 1018.2
20260504032659 48 128 0.0 0.0 0.00 0.00 0.00 83 1018.4
20260504032156 48 128 0.0 0.0 0.00 0.00 0.00 83 1018.3
20260504031653 48 128 0.0 0.0 0.00 0.00 0.00 82 1018.3
20260504031149 48 128 0.0 0.0 0.00 0.00 0.00 81 1018.3
20260504030646 49 128 0.0 0.0 0.00 0.00 0.00 80 1018.2
20260504030143 49 128 0.0 0.0 0.00 0.00 0.00 79 1018.1
20260504025640 49 128 0.0 0.0 0.00 0.00 0.00 81 1018.2
20260504025137 49 128 0.0 0.0 0.00 0.00 0.00 80 1018.1
20260504024634 49 128 0.0 0.0 0.00 0.00 0.00 81 1018.0
20260504024130 50 128 0.0 0.0 0.00 0.00 0.00 79 1018.1
20260504023627 50 128 0.0 0.0 0.00 0.00 0.00 76 1018.0
20260504023123 51 128 0.0 0.0 0.00 0.00 0.00 72 1018.0
20260504022620 50 128 0.0 0.0 0.00 0.00 0.00 73 1017.9
20260504022115 51 128 0.0 0.0 0.00 0.00 0.00 74 1017.9
20260504021614 51 128 0.0 0.0 0.00 0.00 0.00 74 1017.8
20260504021110 51 128 0.0 0.0 0.00 0.00 0.00 73 1017.9
20260504020607 51 128 0.0 0.0 0.00 0.00 0.00 72 1017.7
20260504020103 51 128 0.0 0.0 0.00 0.00 0.00 69 1017.9
20260504015600 52 128 0.0 0.0 0.00 0.00 0.00 69 1017.6
20260504015056 52 128 0.0 0.0 0.00 0.00 0.00 70 1017.7
20260504014552 52 128 0.0 0.0 0.00 0.00 0.00 68 1017.6
20260504014050 52 128 0.0 0.0 0.00 0.00 0.00 66 1017.5
20260504013547 52 128 0.0 0.0 0.00 0.00 0.00 67 1017.5
20260504013044 52 128 0.0 0.0 0.00 0.00 0.00 67 1017.5
20260504012541 52 128 0.0 0.0 0.00 0.00 0.00 67 1017.4
20260504012039 52 127 0.0 0.0 0.00 0.00 0.00 66 1017.4
20260504011536 52 127 0.0 0.0 0.00 0.00 0.00 66 1017.5
20260504011032 53 127 0.0 0.0 0.00 0.00 0.00 64 1017.5
20260504010527 53 127 0.0 0.0 0.00 0.00 0.00 65 1017.5
20260504010024 53 127 0.0 0.0 0.00 0.00 0.00 66 1017.3
20260504005520 53 127 0.0 0.0 0.00 0.00 0.00 66 1017.6
20260504005018 53 127 0.0 0.0 0.00 0.00 0.00 67 1017.5
20260504004516 54 127 0.0 0.0 0.00 0.00 0.00 65 1017.3
20260504004013 54 127 0.0 0.0 0.00 0.00 0.00 67 1017.3
20260504003508 54 127 0.0 0.0 0.00 0.00 0.00 69 1017.1
20260504003006 55 127 0.0 0.0 0.00 0.00 0.00 67 1017.2
20260504002502 55 127 0.0 0.0 0.00 0.00 0.00 67 1017.2
20260504002000 56 123 0.0 0.0 0.00 0.00 0.00 67 1017.3
20260504001457 57 121 0.0 0.0 0.00 0.00 0.00 63 1017.4
20260504000953 57 122 0.0 0.0 0.00 0.00 0.00 59 1017.2
20260504000451 58 128 0.0 1.0 0.00 0.00 0.00 59 1017.2
20260503235948 59 127 0.0 0.0 0.00 0.00 0.00 58 1017.2
20260503235445 59 150 0.0 0.0 0.00 0.00 0.00 54 1017.4
20260503234943 60 134 0.0 0.0 0.00 0.00 0.00 52 1017.3
20260503234440 60 135 0.0 0.0 0.00 0.00 0.00 52 1017.2
20260503233938 61 134 0.0 0.0 0.00 0.00 0.00 50 1017.3
20260503233434 62 113 0.0 0.0 0.00 0.00 0.00 49 1017.2
20260503232931 62 29 2.0 2.0 0.00 0.00 0.00 40 1017.3
20260503232428 62 336 1.0 1.0 0.00 0.00 0.00 49 1017.2
20260503231926 62 143 0.0 0.0 0.00 0.00 0.00 45 1017.2
20260503231423 62 135 0.0 0.0 0.00 0.00 0.00 43 1017.3
20260503230919 63 133 0.0 0.0 0.00 0.00 0.00 44 1017.2
20260503230416 63 141 0.0 0.0 0.00 0.00 0.00 42 1017.2
20260503225914 64 116 1.0 1.0 0.00 0.00 0.00 38 1017.4
20260503225410 64 146 0.0 1.0 0.00 0.00 0.00 43 1017.3
20260503224906 64 324 2.0 2.0 0.00 0.00 0.00 39 1017.2
20260503224403 64 227 1.0 1.0 0.00 0.00 0.00 45 1017.2
20260503223901 64 15 1.0 2.0 0.00 0.00 0.00 39 1017.4
20260503223359 65 322 5.0 7.0 0.00 0.00 0.00 36 1017.3
20260503222853 64 111 0.0 1.0 0.00 0.00 0.00 40 1017.4
20260503222352 64 182 0.0 1.0 0.00 0.00 0.00 42 1017.4
20260503221850 65 153 0.0 0.0 0.00 0.00 0.00 43 1017.6
20260503221349 65 129 0.0 1.0 0.00 0.00 0.00 37 1017.6
20260503220844 65 328 1.0 1.0 0.00 0.00 0.00 40 1017.7
20260503220341 66 133 0.0 1.0 0.00 0.00 0.00 42 1017.4
20260503215838 68 121 0.0 0.0 0.00 0.00 0.00 46 1017.7
20260503215335 69 203 1.0 1.0 0.00 0.00 0.00 38 1017.6
20260503214833 69 172 0.0 0.0 0.00 0.00 0.00 48 1017.8
20260503214330 68 78 1.0 1.0 0.00 0.00 0.00 39 1017.8
20260503213827 67 111 0.0 0.0 0.00 0.00 0.00 42 1017.7
20260503213325 68 303 2.0 3.0 0.00 0.00 0.00 40 1017.7
20260503212821 68 2 1.0 1.0 0.00 0.00 0.00 45 1017.9
20260503212320 68 348 1.0 1.0 0.00 0.00 0.00 45 1017.8
20260503211816 68 245 2.0 2.0 0.00 0.00 0.00 42 1017.9
20260503211313 68 181 1.0 1.0 0.00 0.00 0.00 42 1018.0
20260503210813 68 264 0.0 1.0 0.00 0.00 0.00 43 1018.0
20260503210311 67 133 0.0 0.0 0.00 0.00 0.00 48 1017.9
20260503205806 68 51 2.0 2.0 0.00 0.00 0.00 43 1018.2
20260503205304 69 117 1.0 2.0 0.00 0.00 0.00 40 1018.1
20260503204759 69 262 2.0 2.0 0.00 0.00 0.00 43 1018.3
20260503204257 68 282 0.0 1.0 0.00 0.00 0.00 46 1018.3
20260503203754 68 306 1.0 1.0 0.00 0.00 0.00 40 1018.3
20260503203251 69 174 0.0 0.0 0.00 0.00 0.00 43 1018.6
20260503202748 68 122 2.0 2.0 0.00 0.00 0.00 37 1018.6
20260503202246 68 15 4.0 4.0 0.00 0.00 0.00 37 1018.8
20260503201744 68 198 2.0 2.0 0.00 0.00 0.00 37 1018.9
20260503201241 68 194 2.0 3.0 0.00 0.00 0.00 41 1018.8
20260503200738 68 11 1.0 2.0 0.00 0.00 0.00 43 1018.6
20260503200234 68 311 2.0 2.0 0.00 0.00 0.00 42 1019.1
20260503195731 67 159 1.0 2.0 0.00 0.00 0.00 44 1018.9
20260503195228 68 41 2.0 3.0 0.00 0.00 0.00 41 1019.0
20260503194726 69 259 1.0 1.0 0.00 0.00 0.00 43 1019.3
20260503194221 66 168 0.0 0.0 0.00 0.00 0.00 44 1019.4
20260503193717 68 312 3.0 3.0 0.00 0.00 0.00 45 1019.3
20260503193214 68 283 2.0 2.0 0.00 0.00 0.00 45 1019.5
20260503192709 69 257 4.0 4.0 0.00 0.00 0.00 42 1019.5
20260503192205 67 248 0.0 1.0 0.00 0.00 0.00 49 1019.7
20260503191701 67 154 2.0 4.0 0.00 0.00 0.00 43 1019.7
20260503191159 67 340 1.0 2.0 0.00 0.00 0.00 42 1019.8
20260503190655 67 293 2.0 2.0 0.00 0.00 0.00 46 1020.0
20260503190152 68 282 2.0 3.0 0.00 0.00 0.00 42 1020.0
20260503185649 67 214 0.0 1.0 0.00 0.00 0.00 51 1020.0
20260503185144 67 143 1.0 2.0 0.00 0.00 0.00 39 1020.2
20260503184639 66 170 1.0 1.0 0.00 0.00 0.00 44 1020.2
20260503184136 66 278 2.0 2.0 0.00 0.00 0.00 43 1020.2
20260503183632 68 151 2.0 2.0 0.00 0.00 0.00 41 1020.5
20260503183130 67 163 0.0 1.0 0.00 0.00 0.00 52 1020.3
20260503182628 65 228 0.0 1.0 0.00 0.00 0.00 46 1020.5
20260503182126 66 268 2.0 2.0 0.00 0.00 0.00 45 1020.6
20260503181623 65 78 2.0 3.0 0.00 0.00 0.00 50 1020.6
20260503181119 65 110 1.0 1.0 0.00 0.00 0.00 48 1020.7
20260503180616 65 150 0.0 1.0 0.00 0.00 0.00 52 1020.5
20260503180114 65 12 1.0 1.0 0.00 0.00 0.00 55 1020.5
20260503175611 66 97 1.0 1.0 0.00 0.00 0.00 46 1020.7
20260503175108 65 102 0.0 0.0 0.00 0.00 0.00 53 1020.6
20260503174605 65 212 2.0 2.0 0.00 0.00 0.00 48 1020.7
20260503174102 66 149 2.0 3.0 0.00 0.00 0.00 50 1020.8
20260503173556 65 135 0.0 1.0 0.00 0.00 0.00 56 1020.7
20260503173053 64 160 1.0 1.0 0.00 0.00 0.00 44 1020.8
20260503172551 63 48 0.0 1.0 0.00 0.00 0.00 51 1020.9
20260503172048 64 290 1.0 1.0 0.00 0.00 0.00 53 1020.9
20260503171544 64 40 1.0 1.0 0.00 0.00 0.00 47 1021.1
20260503171042 63 41 1.0 1.0 0.00 0.00 0.00 53 1021.0
20260503170538 62 301 1.0 2.0 0.00 0.00 0.00 52 1021.1
20260503150930 59 39 2.0 2.0 0.00 0.00 0.00 52 1021.5
20260503150427 58 141 0.0 0.0 0.00 0.00 0.00 59 1021.4